sim
Sign-in with your pilot id or email,
or register
Callsign
Passwort

Schedule Details

Flight Number: OEO3780
Departure: Basel Mulhouse-Freiburg EuroAirport (LFSB) at 12:45
Arrival: Fuerteventura Airport (GCFV) at 17:10

Weather Information
Getting current METAR information for LFSB 182030Z VRB02KT CAVOK 11/07 Q1021 NOSIG
Getting current METAR information for GCFV 182030Z 36014KT 9999 FEW045 18/11 Q1019

Schedule Frequency

Route Map